UCT Espen — V7GY6 — position and weather

sailwx.info

Track history (hours):
 
Tides and Currents Weather Stations Pressure Air Temp Water Temp Dewpoint Dewpoint Depression Visibility Wind Speed Wind Dir Waves Ship Positions

UCT Espen

Last reported at 2018-Jan-02 18:58 UTC. Time now 2018-Jan-20 07:19 UTC.
Position N 28°01' W 116°02'.
Warning: this ship's position is 17 days out of date.

Length 111 m; draft 5.3 m.

Type: Ship. MMSI: 538002192.

Date/timePositionNaut miles runAvg speedWind from/ knotsBaromVisibWave heightAir tempDewpointWater temp
2018-Jan-02 18:58N 28°01' W 116°02'8 7.6
2018-Jan-02 17:51N 28°08' W 116°08'3 7.6
2018-Jan-02 17:27N 28°10' W 116°10'3 7.6
2018-Jan-02 17:00N 28°13' W 116°12'6610.1
2018-Jan-02 10:26N 29°06' W 116°58'1110.8
2018-Jan-02 09:27N 29°14' W 117°06'2110.9
2018-Jan-02 07:34N 29°30' W 117°20'111.1
2018-Jan-02 07:30N 29°31' W 117°21'710.9
2018-Jan-02 06:53N 29°36' W 117°26'12011.4
2018-Jan-01 20:18N 31°13' W 118°49'311.1
2018-Jan-01 20:00N 31°16' W 118°50'84 2.2
2017-Dec-31 05:06N 32°22' W 119°52'0 0.3
2017-Dec-31 05:00N 32°22' W 119°52'0 0.3
2017-Dec-31 04:13N 32°22' W 119°52'1 0.1
2017-Dec-30 22:18N 32°23' W 119°52'1 2.8
2017-Dec-30 21:48N 32°21' W 119°52'2 7.5
2017-Dec-30 21:30N 32°19' W 119°52'611.6
2017-Dec-30 21:00N 32°13' W 119°53'611.6
2017-Dec-30 20:31N 32°08' W 119°54'611.7
2017-Dec-30 20:01N 32°02' W 119°55'611.8
2017-Dec-30 19:30N 31°56' W 119°55'611.7
2017-Dec-30 19:00N 31°50' W 119°55'1011.7
2017-Dec-30 18:10N 31°40' W 119°55'211.9
2017-Dec-30 17:57N 31°38' W 119°55'511.8
2017-Dec-30 17:31N 31°33' W 119°55'3 6.3
2017-Dec-30 17:01N 31°29' W 119°55'0 0.5
2017-Dec-30 16:30N 31°29' W 119°54'0 0.1
2017-Dec-30 15:59N 31°29' W 119°54'0 0.1
2017-Dec-30 15:24N 31°29' W 119°54'1 0.2
2017-Dec-30 11:01N 31°30' W 119°54'0 0.5
2017-Dec-30 10:34N 31°31' W 119°54'0 0.5
2017-Dec-30 10:30N 31°31' W 119°54'  
2017-Dec-27 21:58N 32°18' W 119°19'1113.3
2017-Dec-27 21:09N 32°19' W 119°06'1213.3
2017-Dec-27 20:16N 32°24' W 118°53'413.7
2017-Dec-27 20:01N 32°25' W 118°49'713.8
2017-Dec-27 19:30N 32°28' W 118°42'914.1
2017-Dec-27 18:54N 32°32' W 118°33'2214.1
2017-Dec-27 17:21N 32°39' W 118°08'1613.6
2017-Dec-27 16:12N 32°53' W 118°02'313.5
2017-Dec-27 16:00N 32°56' W 118°02'1014.1
2017-Dec-27 15:17N 33°06' W 118°03'613.0
2017-Dec-27 14:48N 33°12' W 118°04'412.0
2017-Dec-27 14:29N 33°16' W 118°05'1012.0
2017-Dec-27 13:40N 33°25' W 118°09'211.9
2017-Dec-27 13:31N 33°27' W 118°10'611.8
2017-Dec-27 13:00N 33°33' W 118°12'810.1
2017-Dec-27 12:16N 33°40' W 118°11'3 7.2
2017-Dec-27 11:48N 33°43' W 118°11'2 5.1
2017-Dec-27 11:30N 33°44' W 118°13'0 0.1
2017-Dec-27 09:49N 33°44' W 118°13'2 0.1
2017-Dec-26 03:18N 33°45' W 118°13'0 0.0
2017-Dec-26 02:48N 33°45' W 118°13'0 0.0
2017-Dec-25 22:16N 33°45' W 118°13'0 1.0
2017-Dec-25 22:00N 33°45' W 118°13'2 4.1
2017-Dec-25 21:30N 33°44' W 118°11'3 5.9
2017-Dec-25 20:57N 33°41' W 118°09'2 3.5
2017-Dec-25 20:30N 33°41' W 118°08'0 0.2
2017-Dec-25 20:00N 33°41' W 118°08'0 0.2
2017-Dec-25 19:27N 33°41' W 118°07'0 0.1
2017-Dec-25 16:57N 33°41' W 118°08'0 0.1
2017-Dec-25 16:27N 33°41' W 118°08'0 0.1
2017-Dec-25 15:57N 33°41' W 118°08'0 0.0
2017-Dec-25 15:30N 33°41' W 118°08'0 0.1
2017-Dec-25 14:33N 33°41' W 118°08'0 0.3
2017-Dec-25 14:21N 33°41' W 118°08'0 0.0
2017-Dec-25 13:57N 33°41' W 118°08'0 0.0
2017-Dec-25 13:27N 33°41' W 118°08'0 0.1
2017-Dec-25 12:54N 33°41' W 118°08'0 0.0
2017-Dec-25 12:15N 33°41' W 118°08'0 0.0
2017-Dec-25 11:57N 33°41' W 118°08'0 0.1
2017-Dec-25 11:27N 33°41' W 118°08'0 0.1
2017-Dec-25 10:57N 33°41' W 118°08'0 0.1
2017-Dec-25 10:27N 33°41' W 118°08'0 0.1
2017-Dec-25 09:03N 33°41' W 118°07'0 0.1
2017-Dec-25 08:57N 33°41' W 118°07'0 0.1
2017-Dec-25 08:21N 33°41' W 118°07'0 0.1
2017-Dec-25 07:57N 33°41' W 118°07'0 0.0
2017-Dec-25 07:27N 33°41' W 118°07'0 0.1
2017-Dec-25 06:51N 33°41' W 118°08'0 0.0
2017-Dec-25 06:27N 33°41' W 118°08'0 0.1
2017-Dec-25 05:57N 33°41' W 118°07'0 0.1
2017-Dec-25 05:27N 33°41' W 118°07'0 0.1
2017-Dec-25 05:00N 33°41' W 118°07'0 0.1
2017-Dec-25 04:30N 33°41' W 118°07'0 0.1
2017-Dec-25 03:57N 33°41' W 118°07'0 0.1
2017-Dec-25 03:27N 33°41' W 118°08'0 0.1
2017-Dec-25 02:51N 33°41' W 118°07'0 0.1
2017-Dec-25 02:27N 33°41' W 118°07'0 0.0
2017-Dec-25 02:00N 33°41' W 118°07'0 0.0
2017-Dec-25 01:21N 33°41' W 118°07'0 0.0
2017-Dec-25 00:51N 33°41' W 118°07'0 0.0
2017-Dec-25 00:27N 33°41' W 118°07'0 0.1
2017-Dec-24 23:54N 33°41' W 118°07'0 0.0
2017-Dec-24 23:30N 33°41' W 118°07'0 0.0
2017-Dec-24 22:57N 33°41' W 118°07'0 0.0
2017-Dec-24 22:27N 33°41' W 118°07'0 0.1
2017-Dec-24 21:57N 33°41' W 118°07'0 0.0
2017-Dec-24 21:27N 33°41' W 118°07'0 0.1
2017-Dec-24 20:57N 33°41' W 118°07'0 0.1
2017-Dec-24 20:15N 33°41' W 118°07'0 0.2
2017-Dec-24 19:57N 33°41' W 118°08'0 0.0
2017-Dec-24 19:21N 33°41' W 118°08'0 0.1
2017-Dec-24 17:57N 33°41' W 118°08'0 0.1
2017-Dec-24 17:21N 33°41' W 118°08'0 0.0
2017-Dec-24 16:57N 33°41' W 118°08'0 0.0
2017-Dec-24 16:21N 33°41' W 118°08'0 0.0
2017-Dec-24 14:51N 33°41' W 118°08'0 0.1
2017-Dec-24 12:09N 33°41' W 118°08'0 0.0
2017-Dec-24 11:57N 33°41' W 118°08'0 0.0
2017-Dec-24 11:30N 33°41' W 118°08'0 0.0
2017-Dec-24 08:39N 33°41' W 118°08'0 0.0
2017-Dec-24 07:57N 33°41' W 118°08'0 0.0
2017-Dec-24 07:27N 33°41' W 118°08'0 0.0
2017-Dec-24 06:51N 33°41' W 118°08'0 0.0
2017-Dec-24 06:09N 33°41' W 118°08'0 0.3
2017-Dec-24 06:00N 33°41' W 118°07'0 0.1
2017-Dec-24 05:30N 33°41' W 118°07'0 0.0
2017-Dec-24 05:00N 33°41' W 118°07'0 0.0
2017-Dec-24 04:27N 33°41' W 118°07'0 0.0
2017-Dec-24 03:57N 33°41' W 118°07'0 0.0
2017-Dec-24 03:21N 33°41' W 118°07'0 0.0
2017-Dec-24 02:57N 33°41' W 118°07'0 0.0
2017-Dec-24 02:09N 33°41' W 118°07'0 0.0
2017-Dec-24 01:57N 33°41' W 118°07'0 0.1
2017-Dec-24 01:27N 33°41' W 118°07'0 0.0
2017-Dec-24 00:45N 33°41' W 118°07'0 0.0
2017-Dec-24 00:27N 33°41' W 118°07'0 0.0
2017-Dec-24 00:00N 33°41' W 118°07'0 0.0
2017-Dec-23 23:27N 33°41' W 118°07'0 0.0
2017-Dec-23 22:57N 33°41' W 118°07'0 0.0
2017-Dec-23 22:27N 33°41' W 118°07'0 0.0
2017-Dec-23 21:51N 33°41' W 118°07'0 0.0
2017-Dec-23 21:27N 33°41' W 118°07'0 0.0
2017-Dec-23 20:39N 33°41' W 118°07'0 0.0
2017-Dec-23 20:27N 33°41' W 118°07'0 0.0
2017-Dec-23 19:57N 33°41' W 118°07'0 0.1
2017-Dec-23 19:27N 33°41' W 118°08'  
Track history (hours):
 
Tides and Currents Weather Stations Pressure Air Temp Water Temp Dewpoint Dewpoint Depression Visibility Wind Speed Wind Dir Waves Ship Positions

UCT Espen

Last reported at 2018-Jan-02 18:58 UTC. Time now 2018-Jan-20 07:19 UTC.
Position N 28°01' W 116°02'.
Warning: this ship's position is 17 days out of date.

Length 111 m; draft 5.3 m.

Type: Ship. MMSI: 538002192.

Date/timePositionNaut miles runAvg speedWind from/ knotsBaromVisibWave heightAir tempDewpointWater temp
2018-Jan-02 18:58N 28°01' W 116°02'8 7.6
2018-Jan-02 17:51N 28°08' W 116°08'3 7.6
2018-Jan-02 17:27N 28°10' W 116°10'3 7.6
2018-Jan-02 17:00N 28°13' W 116°12'6610.1
2018-Jan-02 10:26N 29°06' W 116°58'1110.8
2018-Jan-02 09:27N 29°14' W 117°06'2110.9
2018-Jan-02 07:34N 29°30' W 117°20'111.1
2018-Jan-02 07:30N 29°31' W 117°21'710.9
2018-Jan-02 06:53N 29°36' W 117°26'12011.4
2018-Jan-01 20:18N 31°13' W 118°49'311.1
2018-Jan-01 20:00N 31°16' W 118°50'84 2.2
2017-Dec-31 05:06N 32°22' W 119°52'0 0.3
2017-Dec-31 05:00N 32°22' W 119°52'0 0.3
2017-Dec-31 04:13N 32°22' W 119°52'1 0.1
2017-Dec-30 22:18N 32°23' W 119°52'1 2.8
2017-Dec-30 21:48N 32°21' W 119°52'2 7.5
2017-Dec-30 21:30N 32°19' W 119°52'611.6
2017-Dec-30 21:00N 32°13' W 119°53'611.6
2017-Dec-30 20:31N 32°08' W 119°54'611.7
2017-Dec-30 20:01N 32°02' W 119°55'611.8
2017-Dec-30 19:30N 31°56' W 119°55'611.7
2017-Dec-30 19:00N 31°50' W 119°55'1011.7
2017-Dec-30 18:10N 31°40' W 119°55'211.9
2017-Dec-30 17:57N 31°38' W 119°55'511.8
2017-Dec-30 17:31N 31°33' W 119°55'3 6.3
2017-Dec-30 17:01N 31°29' W 119°55'0 0.5
2017-Dec-30 16:30N 31°29' W 119°54'0 0.1
2017-Dec-30 15:59N 31°29' W 119°54'0 0.1
2017-Dec-30 15:24N 31°29' W 119°54'1 0.2
2017-Dec-30 11:01N 31°30' W 119°54'0 0.5
2017-Dec-30 10:34N 31°31' W 119°54'0 0.5
2017-Dec-30 10:30N 31°31' W 119°54'  
2017-Dec-27 21:58N 32°18' W 119°19'1113.3
2017-Dec-27 21:09N 32°19' W 119°06'1213.3
2017-Dec-27 20:16N 32°24' W 118°53'413.7
2017-Dec-27 20:01N 32°25' W 118°49'713.8
2017-Dec-27 19:30N 32°28' W 118°42'914.1
2017-Dec-27 18:54N 32°32' W 118°33'2214.1
2017-Dec-27 17:21N 32°39' W 118°08'1613.6
2017-Dec-27 16:12N 32°53' W 118°02'313.5
2017-Dec-27 16:00N 32°56' W 118°02'1014.1
2017-Dec-27 15:17N 33°06' W 118°03'613.0
2017-Dec-27 14:48N 33°12' W 118°04'412.0
2017-Dec-27 14:29N 33°16' W 118°05'1012.0
2017-Dec-27 13:40N 33°25' W 118°09'211.9
2017-Dec-27 13:31N 33°27' W 118°10'611.8
2017-Dec-27 13:00N 33°33' W 118°12'810.1
2017-Dec-27 12:16N 33°40' W 118°11'3 7.2
2017-Dec-27 11:48N 33°43' W 118°11'2 5.1
2017-Dec-27 11:30N 33°44' W 118°13'0 0.1
2017-Dec-27 09:49N 33°44' W 118°13'2 0.1
2017-Dec-26 03:18N 33°45' W 118°13'0 0.0
2017-Dec-26 02:48N 33°45' W 118°13'0 0.0
2017-Dec-25 22:16N 33°45' W 118°13'0 1.0
2017-Dec-25 22:00N 33°45' W 118°13'2 4.1
2017-Dec-25 21:30N 33°44' W 118°11'3 5.9
2017-Dec-25 20:57N 33°41' W 118°09'2 3.5
2017-Dec-25 20:30N 33°41' W 118°08'0 0.2
2017-Dec-25 20:00N 33°41' W 118°08'0 0.2
2017-Dec-25 19:27N 33°41' W 118°07'0 0.1
2017-Dec-25 16:57N 33°41' W 118°08'0 0.1
2017-Dec-25 16:27N 33°41' W 118°08'0 0.1
2017-Dec-25 15:57N 33°41' W 118°08'0 0.0
2017-Dec-25 15:30N 33°41' W 118°08'0 0.1
2017-Dec-25 14:33N 33°41' W 118°08'0 0.3
2017-Dec-25 14:21N 33°41' W 118°08'0 0.0
2017-Dec-25 13:57N 33°41' W 118°08'0 0.0
2017-Dec-25 13:27N 33°41' W 118°08'0 0.1
2017-Dec-25 12:54N 33°41' W 118°08'0 0.0
2017-Dec-25 12:15N 33°41' W 118°08'0 0.0
2017-Dec-25 11:57N 33°41' W 118°08'0 0.1
2017-Dec-25 11:27N 33°41' W 118°08'0 0.1
2017-Dec-25 10:57N 33°41' W 118°08'0 0.1
2017-Dec-25 10:27N 33°41' W 118°08'0 0.1
2017-Dec-25 09:03N 33°41' W 118°07'0 0.1
2017-Dec-25 08:57N 33°41' W 118°07'0 0.1
2017-Dec-25 08:21N 33°41' W 118°07'0 0.1
2017-Dec-25 07:57N 33°41' W 118°07'0 0.0
2017-Dec-25 07:27N 33°41' W 118°07'0 0.1
2017-Dec-25 06:51N 33°41' W 118°08'0 0.0
2017-Dec-25 06:27N 33°41' W 118°08'0 0.1
2017-Dec-25 05:57N 33°41' W 118°07'0 0.1
2017-Dec-25 05:27N 33°41' W 118°07'0 0.1
2017-Dec-25 05:00N 33°41' W 118°07'0 0.1
2017-Dec-25 04:30N 33°41' W 118°07'0 0.1
2017-Dec-25 03:57N 33°41' W 118°07'0 0.1
2017-Dec-25 03:27N 33°41' W 118°08'0 0.1
2017-Dec-25 02:51N 33°41' W 118°07'0 0.1
2017-Dec-25 02:27N 33°41' W 118°07'0 0.0
2017-Dec-25 02:00N 33°41' W 118°07'0 0.0
2017-Dec-25 01:21N 33°41' W 118°07'0 0.0
2017-Dec-25 00:51N 33°41' W 118°07'0 0.0
2017-Dec-25 00:27N 33°41' W 118°07'0 0.1
2017-Dec-24 23:54N 33°41' W 118°07'0 0.0
2017-Dec-24 23:30N 33°41' W 118°07'0 0.0
2017-Dec-24 22:57N 33°41' W 118°07'0 0.0
2017-Dec-24 22:27N 33°41' W 118°07'0 0.1
2017-Dec-24 21:57N 33°41' W 118°07'0 0.0
2017-Dec-24 21:27N 33°41' W 118°07'0 0.1
2017-Dec-24 20:57N 33°41' W 118°07'0 0.1
2017-Dec-24 20:15N 33°41' W 118°07'0 0.2
2017-Dec-24 19:57N 33°41' W 118°08'0 0.0
2017-Dec-24 19:21N 33°41' W 118°08'0 0.1
2017-Dec-24 17:57N 33°41' W 118°08'0 0.1
2017-Dec-24 17:21N 33°41' W 118°08'0 0.0
2017-Dec-24 16:57N 33°41' W 118°08'0 0.0
2017-Dec-24 16:21N 33°41' W 118°08'0 0.0
2017-Dec-24 14:51N 33°41' W 118°08'0 0.1
2017-Dec-24 12:09N 33°41' W 118°08'0 0.0
2017-Dec-24 11:57N 33°41' W 118°08'0 0.0
2017-Dec-24 11:30N 33°41' W 118°08'0 0.0
2017-Dec-24 08:39N 33°41' W 118°08'0 0.0
2017-Dec-24 07:57N 33°41' W 118°08'0 0.0
2017-Dec-24 07:27N 33°41' W 118°08'0 0.0
2017-Dec-24 06:51N 33°41' W 118°08'0 0.0
2017-Dec-24 06:09N 33°41' W 118°08'0 0.3
2017-Dec-24 06:00N 33°41' W 118°07'0 0.1
2017-Dec-24 05:30N 33°41' W 118°07'0 0.0
2017-Dec-24 05:00N 33°41' W 118°07'0 0.0
2017-Dec-24 04:27N 33°41' W 118°07'0 0.0
2017-Dec-24 03:57N 33°41' W 118°07'0 0.0
2017-Dec-24 03:21N 33°41' W 118°07'0 0.0
2017-Dec-24 02:57N 33°41' W 118°07'0 0.0
2017-Dec-24 02:09N 33°41' W 118°07'0 0.0
2017-Dec-24 01:57N 33°41' W 118°07'0 0.1
2017-Dec-24 01:27N 33°41' W 118°07'0 0.0
2017-Dec-24 00:45N 33°41' W 118°07'0 0.0
2017-Dec-24 00:27N 33°41' W 118°07'0 0.0
2017-Dec-24 00:00N 33°41' W 118°07'0 0.0
2017-Dec-23 23:27N 33°41' W 118°07'0 0.0
2017-Dec-23 22:57N 33°41' W 118°07'0 0.0
2017-Dec-23 22:27N 33°41' W 118°07'0 0.0
2017-Dec-23 21:51N 33°41' W 118°07'0 0.0
2017-Dec-23 21:27N 33°41' W 118°07'0 0.0
2017-Dec-23 20:39N 33°41' W 118°07'0 0.0
2017-Dec-23 20:27N 33°41' W 118°07'0 0.0
2017-Dec-23 19:57N 33°41' W 118°07'0 0.1
2017-Dec-23 19:27N 33°41' W 118°08'  

Dump ship's entire track history